createdAt,value
2018-07-24T00:00:08.410Z,8.27
2018-07-24T00:02:36.398Z,9.67
2018-07-24T00:05:04.414Z,9.97
2018-07-24T00:07:32.207Z,9.40
2018-07-24T00:10:02.256Z,11.90
2018-07-24T00:12:30.327Z,9.47
2018-07-24T00:14:58.118Z,9.57
2018-07-24T00:17:25.907Z,9.50
2018-07-24T00:19:53.692Z,9.63
2018-07-24T00:22:21.723Z,9.43
2018-07-24T00:24:49.606Z,10.43
2018-07-24T00:27:17.462Z,9.87
2018-07-24T00:29:45.298Z,10.70
2018-07-24T00:32:13.103Z,11.47
2018-07-24T00:34:40.999Z,9.83
2018-07-24T00:37:08.784Z,13.33
2018-07-24T00:39:36.542Z,10.37
2018-07-24T00:42:04.538Z,10.63
2018-07-24T00:44:32.358Z,11.00
2018-07-24T00:47:00.108Z,10.13
2018-07-24T00:49:27.968Z,10.73
2018-07-24T00:51:55.731Z,11.40
2018-07-24T00:54:23.467Z,11.10
2018-07-24T00:56:51.247Z,10.50
2018-07-24T00:59:19.067Z,11.13
2018-07-24T01:01:46.879Z,10.33
2018-07-24T01:04:14.642Z,12.93
2018-07-24T01:06:42.439Z,10.20
2018-07-24T01:09:10.898Z,10.40
2018-07-24T01:11:38.971Z,10.40
2018-07-24T01:14:06.919Z,10.67
2018-07-24T01:16:34.781Z,9.70
2018-07-24T01:19:02.599Z,9.60
2018-07-24T01:21:30.395Z,9.43
2018-07-24T01:23:58.252Z,11.17
2018-07-24T01:26:25.998Z,9.60
2018-07-24T01:28:53.863Z,9.70
2018-07-24T01:31:21.674Z,9.23
2018-07-24T01:33:49.619Z,9.30
2018-07-24T01:36:17.448Z,9.47
2018-07-24T01:38:45.319Z,9.57
2018-07-24T01:41:13.089Z,9.07
2018-07-24T01:43:40.885Z,9.67
2018-07-24T01:46:08.679Z,9.27
2018-07-24T01:48:36.526Z,11.03
2018-07-24T01:51:04.344Z,9.23
2018-07-24T01:53:32.125Z,7.97
2018-07-24T01:55:59.996Z,9.17
2018-07-24T01:58:27.789Z,8.87
2018-07-24T02:01:00.276Z,8.43
2018-07-24T02:03:27.987Z,9.30
2018-07-24T02:05:55.803Z,9.57
2018-07-24T02:08:23.591Z,8.87
2018-07-24T02:10:51.423Z,9.13
2018-07-24T02:13:19.251Z,8.67
2018-07-24T02:15:47.031Z,8.80
2018-07-24T02:18:15.186Z,8.17
2018-07-24T02:20:42.993Z,10.40
2018-07-24T02:23:10.951Z,8.07
2018-07-24T02:25:38.748Z,9.40
2018-07-24T02:28:07.303Z,9.63
2018-07-24T02:30:35.120Z,8.87
2018-07-24T02:33:03.255Z,8.80
2018-07-24T02:35:31.081Z,8.90
2018-07-24T02:37:58.880Z,8.90
2018-07-24T02:40:26.657Z,9.07
2018-07-24T02:42:54.453Z,9.83
2018-07-24T02:45:22.255Z,11.63
2018-07-24T02:47:50.045Z,9.90
2018-07-24T02:50:17.789Z,9.80
2018-07-24T02:52:45.599Z,10.03
2018-07-24T02:55:13.422Z,10.33
2018-07-24T02:57:41.216Z,8.93
2018-07-24T03:00:09.006Z,11.07
2018-07-24T03:02:36.806Z,9.97
2018-07-24T03:05:05.200Z,11.60
2018-07-24T03:07:33.039Z,12.97
2018-07-24T03:10:00.860Z,10.30
2018-07-24T03:12:28.599Z,10.87
2018-07-24T03:14:56.392Z,10.10
2018-07-24T03:17:24.167Z,9.67
2018-07-24T03:19:52.064Z,10.93
2018-07-24T03:22:19.855Z,10.23
2018-07-24T03:24:47.596Z,11.13
2018-07-24T03:27:15.461Z,10.60
2018-07-24T03:29:43.220Z,9.40
2018-07-24T03:32:11.004Z,10.20
2018-07-24T03:34:38.806Z,10.63
2018-07-24T03:37:06.649Z,11.23
2018-07-24T03:39:34.566Z,11.80
2018-07-24T03:42:02.274Z,9.93
2018-07-24T03:44:30.078Z,10.60
2018-07-24T03:46:57.861Z,11.80
2018-07-24T03:49:25.647Z,10.60
2018-07-24T03:51:53.467Z,11.50
2018-07-24T03:54:21.303Z,10.83
2018-07-24T03:56:49.092Z,13.03
2018-07-24T03:59:16.803Z,13.07
2018-07-24T04:01:44.623Z,10.00
2018-07-24T04:04:12.427Z,10.87
2018-07-24T04:06:40.232Z,10.67
2018-07-24T04:09:09.346Z,12.60
2018-07-24T04:11:37.500Z,10.20
2018-07-24T04:14:05.317Z,8.63
2018-07-24T04:16:33.147Z,11.70
2018-07-24T04:19:00.939Z,9.80
2018-07-24T04:21:28.756Z,11.47
2018-07-24T04:23:56.635Z,10.17
2018-07-24T04:26:24.471Z,11.43
2018-07-24T04:28:52.214Z,9.93
2018-07-24T04:31:19.990Z,10.83
2018-07-24T04:33:47.768Z,10.00
2018-07-24T04:36:15.621Z,10.57
2018-07-24T04:38:43.464Z,9.77
2018-07-24T04:41:11.243Z,10.40
2018-07-24T04:43:38.974Z,10.10
2018-07-24T04:46:06.791Z,9.80
2018-07-24T04:48:34.611Z,9.63
2018-07-24T04:51:02.449Z,14.23
2018-07-24T04:53:30.225Z,9.87
2018-07-24T04:55:58.167Z,10.33
2018-07-24T04:58:25.947Z,9.60
2018-07-24T05:00:53.943Z,9.57
2018-07-24T05:03:21.820Z,9.60
2018-07-24T05:05:49.483Z,9.97
2018-07-24T05:08:17.295Z,10.73
2018-07-24T05:10:45.105Z,9.60
2018-07-24T05:13:13.003Z,11.10
2018-07-24T05:15:40.736Z,9.43
2018-07-24T05:18:08.508Z,9.67
2018-07-24T05:20:36.272Z,9.33
2018-07-24T05:23:04.132Z,8.43
2018-07-24T05:25:31.860Z,8.70
2018-07-24T05:27:59.659Z,8.60
2018-07-24T05:30:27.467Z,9.03
2018-07-24T05:32:55.251Z,9.70
2018-07-24T05:35:23.051Z,7.07
2018-07-24T05:37:50.790Z,7.40
2018-07-24T05:40:18.559Z,6.70
2018-07-24T05:42:46.372Z,7.27
2018-07-24T05:45:14.199Z,10.73
2018-07-24T05:47:41.979Z,6.70
2018-07-24T05:50:09.774Z,6.50
2018-07-24T05:52:37.608Z,8.07
2018-07-24T05:55:05.517Z,10.13
2018-07-24T05:57:33.267Z,8.20
2018-07-24T06:00:01.097Z,7.60
2018-07-24T06:02:28.924Z,7.20
2018-07-24T06:04:56.744Z,7.10
2018-07-24T06:07:24.575Z,8.80
2018-07-24T06:09:52.340Z,6.03
2018-07-24T06:12:20.221Z,6.57
2018-07-24T06:14:48.039Z,5.63
2018-07-24T06:17:15.820Z,7.23
2018-07-24T06:19:43.623Z,6.80
2018-07-24T06:22:11.433Z,6.50
2018-07-24T06:24:40.127Z,5.77
2018-07-24T06:27:08.468Z,7.60
2018-07-24T06:29:36.416Z,5.23
2018-07-24T06:32:04.487Z,6.80
2018-07-24T06:34:32.336Z,4.90
2018-07-24T06:37:00.163Z,4.90
2018-07-24T06:39:27.984Z,6.27
2018-07-24T06:41:55.711Z,7.00
2018-07-24T06:44:23.496Z,7.33
2018-07-24T06:46:51.344Z,5.83
2018-07-24T06:49:19.192Z,6.40
2018-07-24T06:51:47.141Z,4.57
2018-07-24T06:54:14.876Z,6.23
2018-07-24T06:56:42.795Z,4.80
2018-07-24T06:59:10.511Z,5.37
2018-07-24T07:01:38.324Z,6.67
2018-07-24T07:04:06.187Z,5.80
2018-07-24T07:06:34.060Z,4.90
2018-07-24T07:09:03.800Z,4.67
2018-07-24T07:11:32.074Z,6.60
2018-07-24T07:13:59.980Z,4.53
2018-07-24T07:16:27.796Z,5.80
2018-07-24T07:18:55.895Z,4.87
2018-07-24T07:21:23.771Z,6.80
2018-07-24T07:23:51.540Z,4.40
2018-07-24T07:26:19.551Z,4.80
2018-07-24T07:28:47.331Z,4.70
2018-07-24T07:31:15.287Z,4.60
2018-07-24T07:33:43.147Z,5.50
2018-07-24T07:36:11.048Z,5.47
2018-07-24T07:38:38.939Z,5.07
2018-07-24T07:41:06.684Z,6.37
2018-07-24T07:43:34.560Z,4.80
2018-07-24T07:46:02.463Z,4.93
2018-07-24T07:48:30.294Z,5.77
2018-07-24T07:50:58.135Z,8.40
2018-07-24T07:53:25.884Z,5.93
2018-07-24T07:55:53.688Z,4.60
2018-07-24T07:58:21.533Z,5.50
2018-07-24T08:00:49.264Z,7.77
2018-07-24T08:03:17.039Z,5.07
2018-07-24T08:05:44.799Z,5.17
2018-07-24T08:08:12.585Z,6.43
2018-07-24T08:10:40.347Z,5.57
2018-07-24T08:13:08.148Z,4.97
2018-07-24T08:15:35.892Z,6.40
2018-07-24T08:18:03.727Z,5.23
2018-07-24T08:20:31.527Z,5.20
2018-07-24T08:22:59.334Z,5.17
2018-07-24T08:25:27.081Z,7.23
2018-07-24T08:27:54.946Z,5.63
2018-07-24T08:30:22.698Z,7.03
2018-07-24T08:32:50.611Z,6.83
2018-07-24T08:35:18.536Z,6.20
2018-07-24T08:37:46.285Z,5.60
2018-07-24T08:40:14.075Z,8.17
2018-07-24T08:42:41.840Z,6.10
2018-07-24T08:45:09.664Z,6.67
2018-07-24T08:47:37.451Z,6.53
2018-07-24T08:50:05.617Z,5.77
2018-07-24T08:52:33.499Z,5.33
2018-07-24T08:55:01.676Z,5.17
2018-07-24T08:57:29.220Z,8.30
2018-07-24T08:59:58.585Z,7.30
2018-07-24T09:02:33.821Z,9.73
2018-07-24T09:05:11.843Z,6.70
2018-07-24T09:07:39.844Z,10.90
2018-07-24T09:10:08.012Z,5.27
2018-07-24T09:12:36.392Z,6.63
2018-07-24T09:15:04.697Z,6.53
2018-07-24T09:17:32.464Z,5.63
2018-07-24T09:20:00.421Z,7.33
2018-07-24T09:22:28.447Z,5.73
2018-07-24T09:24:56.273Z,6.00
2018-07-24T09:27:24.087Z,5.73
2018-07-24T09:29:51.909Z,5.40
2018-07-24T09:32:19.744Z,6.10
2018-07-24T09:34:47.595Z,5.23
2018-07-24T09:37:15.312Z,5.00
2018-07-24T09:39:43.155Z,6.33
2018-07-24T09:42:11.024Z,5.87
2018-07-24T09:44:38.824Z,5.07
2018-07-24T09:47:06.791Z,5.70
2018-07-24T09:49:34.544Z,4.87
2018-07-24T09:52:02.272Z,5.27
2018-07-24T09:54:30.076Z,5.43
2018-07-24T09:56:57.908Z,5.00
2018-07-24T09:59:25.692Z,4.90
2018-07-24T10:01:53.470Z,5.77
2018-07-24T10:04:21.272Z,4.37
2018-07-24T10:06:49.067Z,4.70
2018-07-24T10:09:16.852Z,4.63
2018-07-24T10:11:44.633Z,4.70
2018-07-24T10:14:12.434Z,5.80
2018-07-24T10:16:40.363Z,5.63
2018-07-24T10:19:08.028Z,5.30
2018-07-24T10:21:35.881Z,4.40
2018-07-24T10:24:03.752Z,4.13
2018-07-24T10:26:31.543Z,4.57
2018-07-24T10:28:59.358Z,4.90
2018-07-24T10:31:27.156Z,4.90
2018-07-24T10:33:54.911Z,4.90
2018-07-24T10:36:22.766Z,5.90
2018-07-24T10:38:50.533Z,4.87
2018-07-24T10:41:19.415Z,4.67
2018-07-24T10:43:47.223Z,4.93
2018-07-24T10:46:15.208Z,4.80
2018-07-24T10:48:43.424Z,5.07
2018-07-24T10:51:11.309Z,4.70
2018-07-24T10:53:39.656Z,4.57
2018-07-24T10:56:07.532Z,4.78
2018-07-24T10:58:36.339Z,5.77
2018-07-24T11:01:04.239Z,4.30
2018-07-24T11:03:32.370Z,5.75
2018-07-24T11:06:00.213Z,6.55
2018-07-24T11:08:28.057Z,4.80
2018-07-24T11:10:55.855Z,4.90
2018-07-24T11:13:23.620Z,4.42
2018-07-24T11:15:51.424Z,4.50
2018-07-24T11:18:19.211Z,4.55
2018-07-24T11:20:46.997Z,3.90
2018-07-24T11:23:14.976Z,4.17
2018-07-24T11:25:42.619Z,4.47
2018-07-24T11:28:10.339Z,3.90
2018-07-24T11:30:38.224Z,4.15
2018-07-24T11:33:06.113Z,4.10
2018-07-24T11:35:33.998Z,4.20
2018-07-24T11:38:01.703Z,4.37
2018-07-24T11:40:29.515Z,4.28
2018-07-24T11:42:57.335Z,3.85
2018-07-24T11:45:25.199Z,4.33
2018-07-24T11:47:52.979Z,4.35
2018-07-24T11:50:20.815Z,4.58
2018-07-24T11:52:48.626Z,3.72
2018-07-24T11:55:16.475Z,3.92
2018-07-24T11:57:44.267Z,4.47
2018-07-24T12:00:12.064Z,3.90
2018-07-24T12:02:39.960Z,3.95
2018-07-24T12:05:07.745Z,4.28
2018-07-24T12:07:35.536Z,4.00
2018-07-24T12:10:03.889Z,4.30
2018-07-24T12:12:31.684Z,3.98
2018-07-24T12:14:59.456Z,3.58
2018-07-24T12:17:27.267Z,4.80
2018-07-24T12:19:55.088Z,3.75
2018-07-24T12:22:22.962Z,4.15
2018-07-24T12:24:50.830Z,4.30
2018-07-24T12:27:19.041Z,4.65
2018-07-24T12:29:47.141Z,4.37
2018-07-24T12:32:14.977Z,4.35
2018-07-24T12:34:42.863Z,3.95
2018-07-24T12:37:11.242Z,4.50
2018-07-24T12:39:39.094Z,4.75
2018-07-24T12:42:07.126Z,5.75
2018-07-24T12:44:34.945Z,4.83
2018-07-24T12:47:02.762Z,5.08
2018-07-24T12:49:30.586Z,4.62
2018-07-24T12:51:58.387Z,4.50
2018-07-24T12:54:26.263Z,5.70
2018-07-24T12:56:54.144Z,4.20
2018-07-24T12:59:22.213Z,4.10
2018-07-24T13:01:50.016Z,3.83
2018-07-24T13:04:17.846Z,4.70
2018-07-24T13:06:45.554Z,4.10
2018-07-24T13:09:13.272Z,4.17
2018-07-24T13:11:41.114Z,4.70
2018-07-24T13:14:09.083Z,3.92
2018-07-24T13:16:37.006Z,4.97
2018-07-24T13:19:04.863Z,4.80
2018-07-24T13:21:32.718Z,3.85
2018-07-24T13:24:00.562Z,4.17
2018-07-24T13:26:28.400Z,4.08
2018-07-24T13:28:56.179Z,4.85
2018-07-24T13:31:23.971Z,4.90
2018-07-24T13:33:51.752Z,4.58
2018-07-24T13:36:19.504Z,4.28
2018-07-24T13:38:47.303Z,4.90
2018-07-24T13:41:15.147Z,4.55
2018-07-24T13:43:42.967Z,6.40
2018-07-24T13:46:10.755Z,4.47
2018-07-24T13:48:38.583Z,4.72
2018-07-24T13:51:06.380Z,4.12
2018-07-24T13:53:34.131Z,4.45
2018-07-24T13:56:01.917Z,4.42
2018-07-24T13:58:29.730Z,4.70
2018-07-24T14:00:57.604Z,4.30
2018-07-24T14:03:25.424Z,4.97
2018-07-24T14:05:53.219Z,4.78
2018-07-24T14:08:21.046Z,5.12
2018-07-24T14:10:48.772Z,5.28
2018-07-24T14:13:16.607Z,4.60
2018-07-24T14:15:44.379Z,4.97
2018-07-24T14:18:12.227Z,5.10
2018-07-24T14:20:40.024Z,4.42
2018-07-24T14:23:07.871Z,4.47
2018-07-24T14:25:35.707Z,4.80
2018-07-24T14:28:03.531Z,4.92
2018-07-24T14:30:31.355Z,4.72
2018-07-24T14:32:59.150Z,5.03
2018-07-24T14:35:26.996Z,4.33
2018-07-24T14:37:54.792Z,4.35
2018-07-24T14:40:22.627Z,4.67
2018-07-24T14:42:50.368Z,6.15
2018-07-24T14:45:18.151Z,4.40
2018-07-24T14:47:46.022Z,4.10
2018-07-24T14:50:13.798Z,4.10
2018-07-24T14:52:41.695Z,4.58
2018-07-24T14:55:10.139Z,5.30
2018-07-24T14:57:37.975Z,5.07
2018-07-24T15:00:07.380Z,5.37
2018-07-24T15:02:35.277Z,5.27
2018-07-24T15:05:03.290Z,5.17
2018-07-24T15:07:34.787Z,5.10
2018-07-24T15:10:02.855Z,4.47
2018-07-24T15:12:30.651Z,5.43
2018-07-24T15:14:58.927Z,4.97
2018-07-24T15:17:27.042Z,4.20
2018-07-24T15:19:54.858Z,5.27
2018-07-24T15:22:22.807Z,4.37
2018-07-24T15:24:50.600Z,4.80
2018-07-24T15:27:18.423Z,5.37
2018-07-24T15:30:04.638Z,4.10
2018-07-24T15:32:34.207Z,4.40
2018-07-24T15:35:05.488Z,4.73
2018-07-24T15:37:33.352Z,4.83
2018-07-24T15:40:01.187Z,4.70
2018-07-24T15:42:28.952Z,4.63
2018-07-24T15:44:56.796Z,5.63
2018-07-24T15:47:24.540Z,4.50
2018-07-24T15:49:54.061Z,5.10
2018-07-24T15:52:22.297Z,4.77
2018-07-24T15:54:50.303Z,5.03
2018-07-24T15:57:18.135Z,4.80
2018-07-24T15:59:46.220Z,4.73
2018-07-24T16:02:14.008Z,4.77
2018-07-24T16:04:42.019Z,4.30
2018-07-24T16:07:10.771Z,4.43
2018-07-24T16:09:42.448Z,4.57
2018-07-24T16:12:12.766Z,4.40
2018-07-24T16:14:40.575Z,4.87
2018-07-24T16:17:08.439Z,5.10
2018-07-24T16:19:36.462Z,4.20
2018-07-24T16:22:04.319Z,4.60
2018-07-24T16:24:32.604Z,4.83
2018-07-24T16:27:00.532Z,5.00
2018-07-24T16:29:28.428Z,4.63
2018-07-24T16:31:56.239Z,4.87
2018-07-24T16:34:24.084Z,4.77
2018-07-24T16:36:51.871Z,5.50
2018-07-24T16:39:19.625Z,5.20
2018-07-24T16:41:47.499Z,5.33
2018-07-24T16:44:15.315Z,5.07
2018-07-24T16:46:43.301Z,5.33
2018-07-24T16:49:11.127Z,5.40
2018-07-24T16:51:38.963Z,4.90
2018-07-24T16:54:06.776Z,4.90
2018-07-24T16:56:34.571Z,5.20
2018-07-24T16:59:02.399Z,4.73
2018-07-24T17:01:30.284Z,6.00
2018-07-24T17:03:58.126Z,6.67
2018-07-24T17:06:25.927Z,5.13
2018-07-24T17:08:53.727Z,5.00
2018-07-24T17:11:21.731Z,7.47
2018-07-24T17:13:49.557Z,6.07
2018-07-24T17:16:17.604Z,4.90
2018-07-24T17:18:45.384Z,5.63
2018-07-24T17:21:13.232Z,5.73
2018-07-24T17:23:46.849Z,5.47
2018-07-24T17:26:14.703Z,5.40
2018-07-24T17:28:42.530Z,5.53
2018-07-24T17:31:10.270Z,5.90
2018-07-24T17:33:38.151Z,7.30
2018-07-24T17:36:06.030Z,5.90
2018-07-24T17:38:33.798Z,5.30
2018-07-24T17:41:01.580Z,6.87
2018-07-24T17:43:29.343Z,5.73
2018-07-24T17:45:57.469Z,6.37
2018-07-24T17:48:25.443Z,9.27
2018-07-24T17:50:53.064Z,4.90
2018-07-24T17:53:20.878Z,6.07
2018-07-24T17:55:48.655Z,7.27
2018-07-24T17:58:16.857Z,5.70
2018-07-24T18:00:44.642Z,4.67
2018-07-24T18:03:12.429Z,4.87
2018-07-24T18:05:40.171Z,5.13
2018-07-24T18:08:08.023Z,5.00
2018-07-24T18:10:36.951Z,5.00
2018-07-24T18:13:07.908Z,4.80
2018-07-24T18:15:35.759Z,6.83
2018-07-24T18:18:03.495Z,6.50
2018-07-24T18:20:31.370Z,5.03
2018-07-24T18:22:59.701Z,5.13
2018-07-24T18:25:27.489Z,6.67
2018-07-24T18:27:55.356Z,5.97
2018-07-24T18:30:23.137Z,5.40
2018-07-24T18:32:50.927Z,4.93
2018-07-24T18:35:18.864Z,4.93
2018-07-24T18:37:48.484Z,5.07
2018-07-24T18:40:16.371Z,5.03
2018-07-24T18:42:44.189Z,5.53
2018-07-24T18:45:11.987Z,4.97
2018-07-24T18:47:39.750Z,5.83
2018-07-24T18:50:07.600Z,5.13
2018-07-24T18:52:35.311Z,5.27
2018-07-24T18:55:03.086Z,5.13
2018-07-24T18:57:30.910Z,4.83
2018-07-24T18:59:58.851Z,5.33
2018-07-24T19:02:26.714Z,5.10
2018-07-24T19:04:54.504Z,6.13
2018-07-24T19:07:23.366Z,5.13
2018-07-24T19:09:51.163Z,5.60
2018-07-24T19:12:18.997Z,8.40
2018-07-24T19:14:46.779Z,4.70
2018-07-24T19:17:14.623Z,5.57
2018-07-24T19:19:42.367Z,4.97
2018-07-24T19:22:10.244Z,6.20
2018-07-24T19:24:38.003Z,6.30
2018-07-24T19:27:05.884Z,9.07
2018-07-24T19:29:33.730Z,7.60
2018-07-24T19:32:01.521Z,5.73
2018-07-24T19:34:29.385Z,5.47
2018-07-24T19:36:57.231Z,6.07
2018-07-24T19:39:25.020Z,5.63
2018-07-24T19:41:52.875Z,5.80
2018-07-24T19:44:20.627Z,6.33
2018-07-24T19:46:48.456Z,8.90
2018-07-24T19:49:16.265Z,6.20
2018-07-24T19:51:44.067Z,6.10
2018-07-24T19:54:11.896Z,6.17
2018-07-24T19:56:39.724Z,8.40
2018-07-24T19:59:07.550Z,6.83
2018-07-24T20:01:35.339Z,7.13
2018-07-24T20:04:03.155Z,7.47
2018-07-24T20:06:31.099Z,7.77
2018-07-24T20:09:00.590Z,6.37
2018-07-24T20:11:28.527Z,6.63
2018-07-24T20:13:58.887Z,8.37
2018-07-24T20:16:26.801Z,9.27
2018-07-24T20:18:55.114Z,8.50
2018-07-24T20:21:24.541Z,7.57
2018-07-24T20:23:59.414Z,7.20
2018-07-24T20:26:29.279Z,9.17
2018-07-24T20:28:59.020Z,7.83
2018-07-24T20:31:29.812Z,7.80
2018-07-24T20:34:05.020Z,8.00
2018-07-24T20:36:32.789Z,10.60
2018-07-24T20:39:07.489Z,12.23
2018-07-24T20:41:35.817Z,7.07
2018-07-24T20:44:03.737Z,7.07
2018-07-24T20:46:37.377Z,7.77
2018-07-24T20:49:05.505Z,6.07
2018-07-24T20:51:33.415Z,7.60
2018-07-24T20:54:02.813Z,6.60
2018-07-24T20:56:30.594Z,6.67
2018-07-24T20:58:58.977Z,6.43
2018-07-24T21:01:27.833Z,7.00
2018-07-24T21:03:56.336Z,7.30
2018-07-24T21:06:28.568Z,7.83
2018-07-24T21:08:57.755Z,7.70
2018-07-24T21:11:28.359Z,8.37
2018-07-24T21:13:59.088Z,7.80
2018-07-24T21:16:27.544Z,10.30
2018-07-24T21:19:03.125Z,6.57
2018-07-24T21:21:34.550Z,7.03
2018-07-24T21:24:07.423Z,7.83
2018-07-24T21:26:37.616Z,10.77
2018-07-24T21:29:07.130Z,8.13
2018-07-24T21:31:35.519Z,7.87
2018-07-24T21:34:07.524Z,7.37
2018-07-24T21:36:36.731Z,10.70
2018-07-24T21:39:07.999Z,8.33
2018-07-24T21:41:35.827Z,8.03
2018-07-24T21:44:06.280Z,10.27
2018-07-24T21:46:34.249Z,12.73
2018-07-24T21:49:02.331Z,11.00
2018-07-24T21:51:30.095Z,8.67
2018-07-24T21:53:57.883Z,7.20
2018-07-24T21:56:26.407Z,8.97
2018-07-24T21:59:04.175Z,8.50
2018-07-24T22:01:39.119Z,11.87
2018-07-24T22:04:07.549Z,9.60
2018-07-24T22:06:35.656Z,11.47
2018-07-24T22:09:05.930Z,10.37
2018-07-24T22:11:33.739Z,9.60
2018-07-24T22:14:01.795Z,11.10
2018-07-24T22:16:29.621Z,11.63
2018-07-24T22:18:59.693Z,13.37
2018-07-24T22:21:31.506Z,11.30
2018-07-24T22:24:05.094Z,11.63
2018-07-24T22:26:33.992Z,10.77
2018-07-24T22:29:03.314Z,11.50
2018-07-24T22:31:33.373Z,9.97
2018-07-24T22:34:01.224Z,10.47
2018-07-24T22:36:29.023Z,11.47
2018-07-24T22:38:56.843Z,9.27
2018-07-24T22:41:24.643Z,11.70
2018-07-24T22:43:52.479Z,10.07
2018-07-24T22:46:20.343Z,11.60
2018-07-24T22:48:48.059Z,11.57
2018-07-24T22:51:15.868Z,9.80
2018-07-24T22:53:43.640Z,10.53
2018-07-24T22:56:11.566Z,11.77
2018-07-24T22:58:39.394Z,8.97
2018-07-24T23:01:07.154Z,9.90
2018-07-24T23:03:35.017Z,10.17
2018-07-24T23:06:02.837Z,12.23
2018-07-24T23:08:30.594Z,11.17
2018-07-24T23:10:58.436Z,9.43
2018-07-24T23:13:26.199Z,12.63
2018-07-24T23:15:54.031Z,11.43
2018-07-24T23:18:21.827Z,9.57
2018-07-24T23:20:49.532Z,9.93
2018-07-24T23:23:17.304Z,9.40
2018-07-24T23:25:45.106Z,11.40
2018-07-24T23:28:12.883Z,8.40
2018-07-24T23:30:40.676Z,8.13
2018-07-24T23:33:08.535Z,9.23
2018-07-24T23:35:36.323Z,9.50
2018-07-24T23:38:04.707Z,9.07
2018-07-24T23:40:32.562Z,10.77
2018-07-24T23:43:00.375Z,8.27
2018-07-24T23:45:28.187Z,8.53
2018-07-24T23:47:55.959Z,9.03
2018-07-24T23:50:23.732Z,9.10
2018-07-24T23:52:51.543Z,8.60
2018-07-24T23:55:19.374Z,9.17
2018-07-24T23:57:47.260Z,10.43
